sensor_id;sensor_type;location;lat;lon;timestamp;temperature;humidity
17807;DHT22;9027;48.938;9.182;2023-02-15T00:01:13;1.80;99.90
17807;DHT22;9027;48.938;9.182;2023-02-15T00:02:44;1.80;99.90
17807;DHT22;9027;48.938;9.182;2023-02-15T00:04:22;1.80;99.90
17807;DHT22;9027;48.938;9.182;2023-02-15T00:05:56;1.80;99.90
17807;DHT22;9027;48.938;9.182;2023-02-15T00:07:27;1.80;99.90
17807;DHT22;9027;48.938;9.182;2023-02-15T00:08:59;1.80;99.90
17807;DHT22;9027;48.938;9.182;2023-02-15T00:10:30;1.80;99.90
17807;DHT22;9027;48.938;9.182;2023-02-15T00:12:02;1.80;99.90
17807;DHT22;9027;48.938;9.182;2023-02-15T00:13:34;1.80;99.90
17807;DHT22;9027;48.938;9.182;2023-02-15T00:15:08;1.90;99.90
17807;DHT22;9027;48.938;9.182;2023-02-15T00:16:43;1.90;99.90
17807;DHT22;9027;48.938;9.182;2023-02-15T00:18:15;1.90;99.90
17807;DHT22;9027;48.938;9.182;2023-02-15T00:19:47;2.00;99.90
17807;DHT22;9027;48.938;9.182;2023-02-15T00:21:19;2.00;99.90
17807;DHT22;9027;48.938;9.182;2023-02-15T00:22:50;2.00;99.90
17807;DHT22;9027;48.938;9.182;2023-02-15T00:24:21;2.00;99.90
17807;DHT22;9027;48.938;9.182;2023-02-15T00:26:03;2.00;99.90
17807;DHT22;9027;48.938;9.182;2023-02-15T00:27:34;1.90;99.90
17807;DHT22;9027;48.938;9.182;2023-02-15T00:29:09;2.00;99.90
17807;DHT22;9027;48.938;9.182;2023-02-15T00:30:40;2.00;99.90
17807;DHT22;9027;48.938;9.182;2023-02-15T00:32:12;2.10;99.90
17807;DHT22;9027;48.938;9.182;2023-02-15T00:33:45;2.10;99.90
17807;DHT22;9027;48.938;9.182;2023-02-15T00:35:17;2.20;99.90
17807;DHT22;9027;48.938;9.182;2023-02-15T00:36:49;2.10;99.90
17807;DHT22;9027;48.938;9.182;2023-02-15T00:38:21;2.10;99.90
17807;DHT22;9027;48.938;9.182;2023-02-15T00:39:53;2.10;99.90
17807;DHT22;9027;48.938;9.182;2023-02-15T00:41:25;2.00;99.90
17807;DHT22;9027;48.938;9.182;2023-02-15T00:42:56;2.00;99.90
17807;DHT22;9027;48.938;9.182;2023-02-15T00:44:30;1.90;99.90
17807;DHT22;9027;48.938;9.182;2023-02-15T00:46:03;1.80;99.90
17807;DHT22;9027;48.938;9.182;2023-02-15T00:47:33;1.90;99.90
17807;DHT22;9027;48.938;9.182;2023-02-15T00:49:05;1.90;99.90
17807;DHT22;9027;48.938;9.182;2023-02-15T00:50:37;2.00;99.90
17807;DHT22;9027;48.938;9.182;2023-02-15T00:52:08;2.00;99.90
17807;DHT22;9027;48.938;9.182;2023-02-15T00:53:40;2.00;99.90
17807;DHT22;9027;48.938;9.182;2023-02-15T00:55:12;2.00;99.90
17807;DHT22;9027;48.938;9.182;2023-02-15T00:56:43;2.00;99.90
17807;DHT22;9027;48.938;9.182;2023-02-15T00:58:15;2.10;99.90
17807;DHT22;9027;48.938;9.182;2023-02-15T00:59:47;2.10;99.90
17807;DHT22;9027;48.938;9.182;2023-02-15T01:01:20;2.20;99.90
17807;DHT22;9027;48.938;9.182;2023-02-15T01:02:52;2.20;99.90
17807;DHT22;9027;48.938;9.182;2023-02-15T01:04:23;2.30;99.90
17807;DHT22;9027;48.938;9.182;2023-02-15T01:05:55;2.20;99.90
17807;DHT22;9027;48.938;9.182;2023-02-15T01:07:27;2.20;99.90
17807;DHT22;9027;48.938;9.182;2023-02-15T01:08:58;2.20;99.90
17807;DHT22;9027;48.938;9.182;2023-02-15T01:10:30;2.20;99.90
17807;DHT22;9027;48.938;9.182;2023-02-15T01:12:01;2.10;99.90
17807;DHT22;9027;48.938;9.182;2023-02-15T01:13:34;2.10;99.90
17807;DHT22;9027;48.938;9.182;2023-02-15T01:15:07;2.00;99.90
17807;DHT22;9027;48.938;9.182;2023-02-15T01:16:38;2.00;99.90
17807;DHT22;9027;48.938;9.182;2023-02-15T01:18:10;2.00;99.90
17807;DHT22;9027;48.938;9.182;2023-02-15T01:19:42;2.00;99.90
17807;DHT22;9027;48.938;9.182;2023-02-15T01:21:15;1.90;99.90
17807;DHT22;9027;48.938;9.182;2023-02-15T01:22:48;2.00;99.90
17807;DHT22;9027;48.938;9.182;2023-02-15T01:24:20;1.90;99.90
17807;DHT22;9027;48.938;9.182;2023-02-15T01:25:52;1.80;99.90
17807;DHT22;9027;48.938;9.182;2023-02-15T01:27:24;1.90;99.90
17807;DHT22;9027;48.938;9.182;2023-02-15T01:28:56;1.90;99.90
17807;DHT22;9027;48.938;9.182;2023-02-15T01:30:29;1.90;99.90
17807;DHT22;9027;48.938;9.182;2023-02-15T01:32:00;1.90;99.90
17807;DHT22;9027;48.938;9.182;2023-02-15T01:33:33;1.80;99.90
17807;DHT22;9027;48.938;9.182;2023-02-15T01:35:04;1.90;99.90
17807;DHT22;9027;48.938;9.182;2023-02-15T01:36:36;1.90;99.90
17807;DHT22;9027;48.938;9.182;2023-02-15T01:38:08;1.90;99.90
17807;DHT22;9027;48.938;9.182;2023-02-15T01:39:39;1.90;99.90
17807;DHT22;9027;48.938;9.182;2023-02-15T01:41:10;1.90;99.90
17807;DHT22;9027;48.938;9.182;2023-02-15T01:42:51;1.80;99.90
17807;DHT22;9027;48.938;9.182;2023-02-15T01:44:57;1.80;99.90
17807;DHT22;9027;48.938;9.182;2023-02-15T01:46:33;1.70;99.90
17807;DHT22;9027;48.938;9.182;2023-02-15T01:48:17;1.70;99.90
17807;DHT22;9027;48.938;9.182;2023-02-15T01:49:57;1.70;99.90
17807;DHT22;9027;48.938;9.182;2023-02-15T01:51:31;1.70;99.90
17807;DHT22;9027;48.938;9.182;2023-02-15T01:53:09;1.60;99.90
17807;DHT22;9027;48.938;9.182;2023-02-15T01:54:46;1.60;99.90
17807;DHT22;9027;48.938;9.182;2023-02-15T01:56:21;1.70;99.90
17807;DHT22;9027;48.938;9.182;2023-02-15T01:57:54;1.60;99.90
17807;DHT22;9027;48.938;9.182;2023-02-15T01:59:26;1.60;99.90
17807;DHT22;9027;48.938;9.182;2023-02-15T02:00:59;1.60;99.90
17807;DHT22;9027;48.938;9.182;2023-02-15T02:02:32;1.60;99.90
17807;DHT22;9027;48.938;9.182;2023-02-15T02:04:10;1.60;99.90
17807;DHT22;9027;48.938;9.182;2023-02-15T02:05:42;1.70;99.90
17807;DHT22;9027;48.938;9.182;2023-02-15T02:07:19;1.80;99.90
17807;DHT22;9027;48.938;9.182;2023-02-15T02:08:52;1.70;99.90
17807;DHT22;9027;48.938;9.182;2023-02-15T02:10:25;1.30;99.90
17807;DHT22;9027;48.938;9.182;2023-02-15T02:11:57;1.10;99.90
17807;DHT22;9027;48.938;9.182;2023-02-15T02:13:28;1.20;99.90
17807;DHT22;9027;48.938;9.182;2023-02-15T02:15:00;1.20;99.90
17807;DHT22;9027;48.938;9.182;2023-02-15T02:16:38;1.30;99.90
17807;DHT22;9027;48.938;9.182;2023-02-15T02:18:24;1.40;99.90
17807;DHT22;9027;48.938;9.182;2023-02-15T02:20:17;1.50;99.90
17807;DHT22;9027;48.938;9.182;2023-02-15T02:24:29;1.40;99.90
17807;DHT22;9027;48.938;9.182;2023-02-15T02:28:40;1.50;99.90
17807;DHT22;9027;48.938;9.182;2023-02-15T02:30:49;1.60;99.90
17807;DHT22;9027;48.938;9.182;2023-02-15T02:32:58;1.60;99.90
17807;DHT22;9027;48.938;9.182;2023-02-15T02:34:40;1.60;99.90
17807;DHT22;9027;48.938;9.182;2023-02-15T02:36:18;1.50;99.90
17807;DHT22;9027;48.938;9.182;2023-02-15T02:38:02;1.50;99.90
17807;DHT22;9027;48.938;9.182;2023-02-15T02:39:41;1.50;99.90
17807;DHT22;9027;48.938;9.182;2023-02-15T02:41:22;1.40;99.90
17807;DHT22;9027;48.938;9.182;2023-02-15T02:43:01;1.40;99.90
17807;DHT22;9027;48.938;9.182;2023-02-15T02:44:41;1.20;99.90
17807;DHT22;9027;48.938;9.182;2023-02-15T02:46:20;1.20;99.90
17807;DHT22;9027;48.938;9.182;2023-02-15T02:47:55;1.10;99.90
17807;DHT22;9027;48.938;9.182;2023-02-15T02:49:31;1.00;99.90
17807;DHT22;9027;48.938;9.182;2023-02-15T02:51:03;1.10;99.90
17807;DHT22;9027;48.938;9.182;2023-02-15T02:52:38;1.10;99.90
17807;DHT22;9027;48.938;9.182;2023-02-15T02:54:09;1.10;99.90
17807;DHT22;9027;48.938;9.182;2023-02-15T02:55:45;1.20;99.90
17807;DHT22;9027;48.938;9.182;2023-02-15T02:57:18;1.20;99.90
17807;DHT22;9027;48.938;9.182;2023-02-15T02:58:55;1.30;99.90
17807;DHT22;9027;48.938;9.182;2023-02-15T03:00:31;1.40;99.90
17807;DHT22;9027;48.938;9.182;2023-02-15T03:02:06;1.30;99.90
17807;DHT22;9027;48.938;9.182;2023-02-15T03:03:47;1.30;99.90
17807;DHT22;9027;48.938;9.182;2023-02-15T03:05:24;1.40;99.90
17807;DHT22;9027;48.938;9.182;2023-02-15T03:07:01;1.40;99.90
17807;DHT22;9027;48.938;9.182;2023-02-15T03:08:38;1.50;99.90
17807;DHT22;9027;48.938;9.182;2023-02-15T03:10:11;1.50;99.90
17807;DHT22;9027;48.938;9.182;2023-02-15T03:11:44;1.50;99.90
17807;DHT22;9027;48.938;9.182;2023-02-15T03:13:17;1.50;99.90
17807;DHT22;9027;48.938;9.182;2023-02-15T03:14:50;1.50;99.90
17807;DHT22;9027;48.938;9.182;2023-02-15T03:16:23;1.50;99.90
17807;DHT22;9027;48.938;9.182;2023-02-15T03:17:59;1.60;99.90
17807;DHT22;9027;48.938;9.182;2023-02-15T03:19:36;1.60;99.90
17807;DHT22;9027;48.938;9.182;2023-02-15T03:21:10;1.60;99.90
17807;DHT22;9027;48.938;9.182;2023-02-15T03:22:54;1.40;99.90
17807;DHT22;9027;48.938;9.182;2023-02-15T03:24:33;1.40;99.90
17807;DHT22;9027;48.938;9.182;2023-02-15T03:26:07;1.40;99.90
17807;DHT22;9027;48.938;9.182;2023-02-15T03:27:44;1.50;99.90
17807;DHT22;9027;48.938;9.182;2023-02-15T03:29:19;1.50;99.90
17807;DHT22;9027;48.938;9.182;2023-02-15T03:30:58;1.50;99.90
17807;DHT22;9027;48.938;9.182;2023-02-15T03:32:32;1.60;99.90
17807;DHT22;9027;48.938;9.182;2023-02-15T03:34:07;1.40;99.90
17807;DHT22;9027;48.938;9.182;2023-02-15T03:35:45;1.40;99.90
17807;DHT22;9027;48.938;9.182;2023-02-15T03:37:26;1.50;99.90
17807;DHT22;9027;48.938;9.182;2023-02-15T03:39:04;1.50;99.90
17807;DHT22;9027;48.938;9.182;2023-02-15T03:40:40;1.60;99.90
17807;DHT22;9027;48.938;9.182;2023-02-15T03:42:33;1.60;99.90
17807;DHT22;9027;48.938;9.182;2023-02-15T03:44:13;1.60;99.90
17807;DHT22;9027;48.938;9.182;2023-02-15T03:45:51;1.40;99.90
17807;DHT22;9027;48.938;9.182;2023-02-15T03:47:28;1.40;99.90
17807;DHT22;9027;48.938;9.182;2023-02-15T03:49:03;1.40;99.90
17807;DHT22;9027;48.938;9.182;2023-02-15T03:50:37;1.40;99.90
17807;DHT22;9027;48.938;9.182;2023-02-15T03:52:28;1.40;99.90
17807;DHT22;9027;48.938;9.182;2023-02-15T03:54:03;1.50;99.90
17807;DHT22;9027;48.938;9.182;2023-02-15T03:55:35;1.60;99.90
17807;DHT22;9027;48.938;9.182;2023-02-15T03:57:10;1.60;99.90
17807;DHT22;9027;48.938;9.182;2023-02-15T03:58:59;1.60;99.90
17807;DHT22;9027;48.938;9.182;2023-02-15T04:00:53;1.50;99.90
17807;DHT22;9027;48.938;9.182;2023-02-15T04:02:58;1.50;99.90
17807;DHT22;9027;48.938;9.182;2023-02-15T04:04:36;1.60;99.90
17807;DHT22;9027;48.938;9.182;2023-02-15T04:06:08;1.60;99.90
17807;DHT22;9027;48.938;9.182;2023-02-15T04:07:40;1.60;99.90
17807;DHT22;9027;48.938;9.182;2023-02-15T04:09:12;1.70;99.90
17807;DHT22;9027;48.938;9.182;2023-02-15T04:11:01;1.60;99.90
17807;DHT22;9027;48.938;9.182;2023-02-15T04:12:33;1.70;99.90
17807;DHT22;9027;48.938;9.182;2023-02-15T04:14:04;1.70;99.90
17807;DHT22;9027;48.938;9.182;2023-02-15T04:15:56;1.70;99.90
17807;DHT22;9027;48.938;9.182;2023-02-15T04:17:38;1.70;99.90
17807;DHT22;9027;48.938;9.182;2023-02-15T04:19:09;1.60;99.90
17807;DHT22;9027;48.938;9.182;2023-02-15T04:20:59;1.60;99.90
17807;DHT22;9027;48.938;9.182;2023-02-15T04:22:50;1.60;99.90
17807;DHT22;9027;48.938;9.182;2023-02-15T04:24:39;1.70;99.90
17807;DHT22;9027;48.938;9.182;2023-02-15T04:26:29;1.70;99.90
17807;DHT22;9027;48.938;9.182;2023-02-15T04:28:00;1.60;99.90
17807;DHT22;9027;48.938;9.182;2023-02-15T04:29:32;1.60;99.90
17807;DHT22;9027;48.938;9.182;2023-02-15T04:31:04;1.70;99.90
17807;DHT22;9027;48.938;9.182;2023-02-15T04:32:36;1.70;99.90
17807;DHT22;9027;48.938;9.182;2023-02-15T04:34:07;1.70;99.90
17807;DHT22;9027;48.938;9.182;2023-02-15T04:35:39;1.60;99.90
17807;DHT22;9027;48.938;9.182;2023-02-15T04:37:10;1.60;99.90
17807;DHT22;9027;48.938;9.182;2023-02-15T04:38:44;1.60;99.90
17807;DHT22;9027;48.938;9.182;2023-02-15T04:40:16;1.60;99.90
17807;DHT22;9027;48.938;9.182;2023-02-15T04:41:48;1.50;99.90
17807;DHT22;9027;48.938;9.182;2023-02-15T04:43:20;1.50;99.90
17807;DHT22;9027;48.938;9.182;2023-02-15T04:44:52;1.60;99.90
17807;DHT22;9027;48.938;9.182;2023-02-15T04:46:24;1.60;99.90
17807;DHT22;9027;48.938;9.182;2023-02-15T04:47:56;1.60;99.90
17807;DHT22;9027;48.938;9.182;2023-02-15T04:49:28;1.60;99.90
17807;DHT22;9027;48.938;9.182;2023-02-15T04:50:59;1.60;99.90
17807;DHT22;9027;48.938;9.182;2023-02-15T04:52:31;1.50;99.90
17807;DHT22;9027;48.938;9.182;2023-02-15T04:54:04;1.50;99.90
17807;DHT22;9027;48.938;9.182;2023-02-15T04:55:36;1.40;99.90
17807;DHT22;9027;48.938;9.182;2023-02-15T04:57:08;1.30;99.90
17807;DHT22;9027;48.938;9.182;2023-02-15T04:58:40;1.30;99.90
17807;DHT22;9027;48.938;9.182;2023-02-15T05:00:13;1.30;99.90
17807;DHT22;9027;48.938;9.182;2023-02-15T05:01:44;1.30;99.90
17807;DHT22;9027;48.938;9.182;2023-02-15T05:03:16;1.20;99.90
17807;DHT22;9027;48.938;9.182;2023-02-15T05:04:48;1.20;99.90
17807;DHT22;9027;48.938;9.182;2023-02-15T05:06:20;1.10;99.90
17807;DHT22;9027;48.938;9.182;2023-02-15T05:07:52;1.20;99.90
17807;DHT22;9027;48.938;9.182;2023-02-15T05:09:26;1.30;99.90
17807;DHT22;9027;48.938;9.182;2023-02-15T05:10:57;1.40;99.90
17807;DHT22;9027;48.938;9.182;2023-02-15T05:12:29;1.50;99.90
17807;DHT22;9027;48.938;9.182;2023-02-15T05:14:00;1.50;99.90
17807;DHT22;9027;48.938;9.182;2023-02-15T05:15:31;1.50;99.90
17807;DHT22;9027;48.938;9.182;2023-02-15T05:17:03;1.50;99.90
17807;DHT22;9027;48.938;9.182;2023-02-15T05:18:35;1.60;99.90
17807;DHT22;9027;48.938;9.182;2023-02-15T05:20:08;1.60;99.90
17807;DHT22;9027;48.938;9.182;2023-02-15T05:21:40;1.60;99.90
17807;DHT22;9027;48.938;9.182;2023-02-15T05:23:12;1.60;99.90
17807;DHT22;9027;48.938;9.182;2023-02-15T05:24:45;1.60;99.90
17807;DHT22;9027;48.938;9.182;2023-02-15T05:26:34;1.60;99.90
17807;DHT22;9027;48.938;9.182;2023-02-15T05:28:27;1.60;99.90
17807;DHT22;9027;48.938;9.182;2023-02-15T05:29:59;1.30;99.90
17807;DHT22;9027;48.938;9.182;2023-02-15T05:31:31;1.10;99.90
17807;DHT22;9027;48.938;9.182;2023-02-15T05:33:03;1.10;99.90
17807;DHT22;9027;48.938;9.182;2023-02-15T05:34:35;1.10;99.90
17807;DHT22;9027;48.938;9.182;2023-02-15T05:36:07;1.10;99.90
17807;DHT22;9027;48.938;9.182;2023-02-15T05:37:39;1.10;99.90
17807;DHT22;9027;48.938;9.182;2023-02-15T05:39:11;1.10;99.90
17807;DHT22;9027;48.938;9.182;2023-02-15T05:40:44;0.90;99.90
17807;DHT22;9027;48.938;9.182;2023-02-15T05:42:16;0.80;99.90
17807;DHT22;9027;48.938;9.182;2023-02-15T05:43:48;0.80;99.90
17807;DHT22;9027;48.938;9.182;2023-02-15T05:45:20;0.80;99.90
17807;DHT22;9027;48.938;9.182;2023-02-15T05:46:52;0.80;99.90
17807;DHT22;9027;48.938;9.182;2023-02-15T05:48:25;0.90;99.90
17807;DHT22;9027;48.938;9.182;2023-02-15T05:49:57;0.80;99.90
17807;DHT22;9027;48.938;9.182;2023-02-15T05:51:29;0.60;99.90
17807;DHT22;9027;48.938;9.182;2023-02-15T05:53:00;0.50;99.90
17807;DHT22;9027;48.938;9.182;2023-02-15T05:54:32;0.50;99.90
17807;DHT22;9027;48.938;9.182;2023-02-15T05:56:06;0.60;99.90
17807;DHT22;9027;48.938;9.182;2023-02-15T05:57:38;0.80;99.90
17807;DHT22;9027;48.938;9.182;2023-02-15T05:59:10;0.90;99.90
17807;DHT22;9027;48.938;9.182;2023-02-15T06:00:43;0.90;99.90
17807;DHT22;9027;48.938;9.182;2023-02-15T06:02:15;1.00;99.90
17807;DHT22;9027;48.938;9.182;2023-02-15T06:03:47;1.10;99.90
17807;DHT22;9027;48.938;9.182;2023-02-15T06:05:19;1.00;99.90
17807;DHT22;9027;48.938;9.182;2023-02-15T06:06:51;1.00;99.90
17807;DHT22;9027;48.938;9.182;2023-02-15T06:08:23;1.00;99.90
17807;DHT22;9027;48.938;9.182;2023-02-15T06:09:55;0.90;99.90
17807;DHT22;9027;48.938;9.182;2023-02-15T06:11:28;0.90;99.90
17807;DHT22;9027;48.938;9.182;2023-02-15T06:13:00;0.90;99.90
17807;DHT22;9027;48.938;9.182;2023-02-15T06:14:32;1.00;99.90
17807;DHT22;9027;48.938;9.182;2023-02-15T06:16:04;1.00;99.90
17807;DHT22;9027;48.938;9.182;2023-02-15T06:17:36;1.00;99.90
17807;DHT22;9027;48.938;9.182;2023-02-15T06:19:07;1.10;99.90
17807;DHT22;9027;48.938;9.182;2023-02-15T06:20:39;1.00;99.90
17807;DHT22;9027;48.938;9.182;2023-02-15T06:22:11;1.10;99.90
17807;DHT22;9027;48.938;9.182;2023-02-15T06:23:44;1.00;99.90
17807;DHT22;9027;48.938;9.182;2023-02-15T06:25:16;1.10;99.90
17807;DHT22;9027;48.938;9.182;2023-02-15T06:26:49;1.00;99.90
17807;DHT22;9027;48.938;9.182;2023-02-15T06:28:21;1.00;99.90
17807;DHT22;9027;48.938;9.182;2023-02-15T06:29:53;1.00;99.90
17807;DHT22;9027;48.938;9.182;2023-02-15T06:31:25;1.00;99.90
17807;DHT22;9027;48.938;9.182;2023-02-15T06:32:57;1.00;99.90
17807;DHT22;9027;48.938;9.182;2023-02-15T06:34:29;1.00;99.90
17807;DHT22;9027;48.938;9.182;2023-02-15T06:36:01;1.00;99.90
17807;DHT22;9027;48.938;9.182;2023-02-15T06:37:34;1.00;99.90
17807;DHT22;9027;48.938;9.182;2023-02-15T06:39:05;1.10;99.90
17807;DHT22;9027;48.938;9.182;2023-02-15T06:40:37;1.10;99.90
17807;DHT22;9027;48.938;9.182;2023-02-15T06:42:11;1.00;99.90
17807;DHT22;9027;48.938;9.182;2023-02-15T06:43:43;1.10;99.90
17807;DHT22;9027;48.938;9.182;2023-02-15T06:45:15;1.10;99.90
17807;DHT22;9027;48.938;9.182;2023-02-15T06:46:47;1.10;99.90
17807;DHT22;9027;48.938;9.182;2023-02-15T06:48:18;1.10;99.90
17807;DHT22;9027;48.938;9.182;2023-02-15T06:49:50;0.90;99.90
17807;DHT22;9027;48.938;9.182;2023-02-15T06:51:22;0.90;99.90
17807;DHT22;9027;48.938;9.182;2023-02-15T06:52:56;0.80;99.90
17807;DHT22;9027;48.938;9.182;2023-02-15T06:54:28;0.80;99.90
17807;DHT22;9027;48.938;9.182;2023-02-15T06:56:00;0.80;99.90
17807;DHT22;9027;48.938;9.182;2023-02-15T06:57:34;0.70;99.90
17807;DHT22;9027;48.938;9.182;2023-02-15T06:59:06;0.70;99.90
17807;DHT22;9027;48.938;9.182;2023-02-15T07:00:38;0.70;99.90
17807;DHT22;9027;48.938;9.182;2023-02-15T07:02:11;0.70;99.90
17807;DHT22;9027;48.938;9.182;2023-02-15T07:03:42;0.70;99.90
17807;DHT22;9027;48.938;9.182;2023-02-15T07:05:14;0.80;99.90
17807;DHT22;9027;48.938;9.182;2023-02-15T07:06:46;0.80;99.90
17807;DHT22;9027;48.938;9.182;2023-02-15T07:08:18;0.80;99.90
17807;DHT22;9027;48.938;9.182;2023-02-15T07:09:50;0.70;99.90
17807;DHT22;9027;48.938;9.182;2023-02-15T07:11:22;0.30;99.90
17807;DHT22;9027;48.938;9.182;2023-02-15T07:13:13;0.10;99.90
17807;DHT22;9027;48.938;9.182;2023-02-15T07:14:45;-0.10;99.90
17807;DHT22;9027;48.938;9.182;2023-02-15T07:16:17;-0.10;99.90
17807;DHT22;9027;48.938;9.182;2023-02-15T07:17:49;0.00;99.90
17807;DHT22;9027;48.938;9.182;2023-02-15T07:19:21;0.10;99.90
17807;DHT22;9027;48.938;9.182;2023-02-15T07:20:53;0.20;99.90
17807;DHT22;9027;48.938;9.182;2023-02-15T07:22:25;0.40;99.90
17807;DHT22;9027;48.938;9.182;2023-02-15T07:23:57;0.50;99.90
17807;DHT22;9027;48.938;9.182;2023-02-15T07:25:29;0.50;99.90
17807;DHT22;9027;48.938;9.182;2023-02-15T07:27:01;0.60;99.90
17807;DHT22;9027;48.938;9.182;2023-02-15T07:28:35;0.70;99.90
17807;DHT22;9027;48.938;9.182;2023-02-15T07:30:10;0.70;99.90
17807;DHT22;9027;48.938;9.182;2023-02-15T07:31:42;0.70;99.90
17807;DHT22;9027;48.938;9.182;2023-02-15T07:33:15;0.80;99.90
17807;DHT22;9027;48.938;9.182;2023-02-15T07:34:58;0.80;99.90
17807;DHT22;9027;48.938;9.182;2023-02-15T07:36:30;0.80;99.90
17807;DHT22;9027;48.938;9.182;2023-02-15T07:38:01;0.90;99.90
17807;DHT22;9027;48.938;9.182;2023-02-15T07:39:33;0.90;99.90
17807;DHT22;9027;48.938;9.182;2023-02-15T07:41:06;1.00;99.90
17807;DHT22;9027;48.938;9.182;2023-02-15T07:42:39;1.00;99.90
17807;DHT22;9027;48.938;9.182;2023-02-15T07:44:13;1.00;99.90
17807;DHT22;9027;48.938;9.182;2023-02-15T07:45:45;1.00;99.90
17807;DHT22;9027;48.938;9.182;2023-02-15T07:47:16;1.00;99.90
17807;DHT22;9027;48.938;9.182;2023-02-15T07:48:49;1.10;99.90
17807;DHT22;9027;48.938;9.182;2023-02-15T07:50:21;1.10;99.90
17807;DHT22;9027;48.938;9.182;2023-02-15T07:51:52;1.10;99.90
17807;DHT22;9027;48.938;9.182;2023-02-15T07:53:24;1.10;99.90
17807;DHT22;9027;48.938;9.182;2023-02-15T07:54:56;1.10;99.90
17807;DHT22;9027;48.938;9.182;2023-02-15T07:56:28;1.10;99.90
17807;DHT22;9027;48.938;9.182;2023-02-15T07:58:00;1.20;99.90
17807;DHT22;9027;48.938;9.182;2023-02-15T07:59:34;1.20;99.90
17807;DHT22;9027;48.938;9.182;2023-02-15T08:01:06;1.30;99.90
17807;DHT22;9027;48.938;9.182;2023-02-15T08:02:38;1.30;99.90
17807;DHT22;9027;48.938;9.182;2023-02-15T08:04:10;1.30;99.90
17807;DHT22;9027;48.938;9.182;2023-02-15T08:05:44;1.20;99.90
17807;DHT22;9027;48.938;9.182;2023-02-15T08:07:16;1.20;99.90
17807;DHT22;9027;48.938;9.182;2023-02-15T08:08:48;1.20;99.90
17807;DHT22;9027;48.938;9.182;2023-02-15T08:10:20;1.30;99.90
17807;DHT22;9027;48.938;9.182;2023-02-15T08:12:12;1.30;99.90
17807;DHT22;9027;48.938;9.182;2023-02-15T08:13:44;1.40;99.90
17807;DHT22;9027;48.938;9.182;2023-02-15T08:15:25;1.40;99.90
17807;DHT22;9027;48.938;9.182;2023-02-15T08:16:59;1.20;99.90
17807;DHT22;9027;48.938;9.182;2023-02-15T08:18:33;1.00;99.90
17807;DHT22;9027;48.938;9.182;2023-02-15T08:20:05;0.90;99.90
17807;DHT22;9027;48.938;9.182;2023-02-15T08:21:39;1.00;99.90
17807;DHT22;9027;48.938;9.182;2023-02-15T08:23:11;1.10;99.90
17807;DHT22;9027;48.938;9.182;2023-02-15T08:24:43;1.10;99.90
17807;DHT22;9027;48.938;9.182;2023-02-15T08:26:15;1.10;99.90
17807;DHT22;9027;48.938;9.182;2023-02-15T08:27:49;1.10;99.90
17807;DHT22;9027;48.938;9.182;2023-02-15T08:29:23;1.20;99.90
17807;DHT22;9027;48.938;9.182;2023-02-15T08:31:04;1.20;99.90
17807;DHT22;9027;48.938;9.182;2023-02-15T08:32:37;1.10;99.90
17807;DHT22;9027;48.938;9.182;2023-02-15T08:34:09;1.10;99.90
17807;DHT22;9027;48.938;9.182;2023-02-15T08:35:42;1.10;99.90
17807;DHT22;9027;48.938;9.182;2023-02-15T08:37:13;1.30;99.90
17807;DHT22;9027;48.938;9.182;2023-02-15T08:38:46;1.30;99.90
17807;DHT22;9027;48.938;9.182;2023-02-15T08:40:18;1.40;99.90
17807;DHT22;9027;48.938;9.182;2023-02-15T08:41:50;1.40;99.90
17807;DHT22;9027;48.938;9.182;2023-02-15T08:43:22;1.50;99.90
17807;DHT22;9027;48.938;9.182;2023-02-15T08:44:54;1.60;99.90
17807;DHT22;9027;48.938;9.182;2023-02-15T08:46:28;1.60;99.90
17807;DHT22;9027;48.938;9.182;2023-02-15T08:48:00;1.60;99.90
17807;DHT22;9027;48.938;9.182;2023-02-15T08:49:32;1.30;99.90
17807;DHT22;9027;48.938;9.182;2023-02-15T08:51:09;1.00;99.90
17807;DHT22;9027;48.938;9.182;2023-02-15T08:52:42;0.80;99.90
17807;DHT22;9027;48.938;9.182;2023-02-15T08:54:15;0.90;99.90
17807;DHT22;9027;48.938;9.182;2023-02-15T08:55:55;1.00;99.90
17807;DHT22;9027;48.938;9.182;2023-02-15T08:57:27;0.90;99.90
17807;DHT22;9027;48.938;9.182;2023-02-15T08:58:59;1.00;99.90
17807;DHT22;9027;48.938;9.182;2023-02-15T09:00:31;1.00;99.90
17807;DHT22;9027;48.938;9.182;2023-02-15T09:02:05;1.10;99.90
17807;DHT22;9027;48.938;9.182;2023-02-15T09:03:38;1.20;99.90
17807;DHT22;9027;48.938;9.182;2023-02-15T09:05:10;1.20;99.90
17807;DHT22;9027;48.938;9.182;2023-02-15T09:06:43;1.10;99.90
17807;DHT22;9027;48.938;9.182;2023-02-15T09:08:15;1.30;99.90
17807;DHT22;9027;48.938;9.182;2023-02-15T09:09:47;1.30;99.90
17807;DHT22;9027;48.938;9.182;2023-02-15T09:11:20;1.40;99.90
17807;DHT22;9027;48.938;9.182;2023-02-15T09:12:54;1.40;99.90
17807;DHT22;9027;48.938;9.182;2023-02-15T09:14:26;1.20;99.90
17807;DHT22;9027;48.938;9.182;2023-02-15T09:16:00;1.30;99.90
17807;DHT22;9027;48.938;9.182;2023-02-15T09:17:33;1.30;99.90
17807;DHT22;9027;48.938;9.182;2023-02-15T09:19:05;1.40;99.90
17807;DHT22;9027;48.938;9.182;2023-02-15T09:20:37;1.30;99.90
17807;DHT22;9027;48.938;9.182;2023-02-15T09:22:09;1.40;99.90
17807;DHT22;9027;48.938;9.182;2023-02-15T09:23:42;1.40;99.90
17807;DHT22;9027;48.938;9.182;2023-02-15T09:25:15;1.50;99.90
17807;DHT22;9027;48.938;9.182;2023-02-15T09:26:48;1.60;99.90
17807;DHT22;9027;48.938;9.182;2023-02-15T09:28:20;1.60;99.90
17807;DHT22;9027;48.938;9.182;2023-02-15T09:29:51;1.70;99.90
17807;DHT22;9027;48.938;9.182;2023-02-15T09:31:25;1.70;99.90
17807;DHT22;9027;48.938;9.182;2023-02-15T09:32:58;1.70;99.90
17807;DHT22;9027;48.938;9.182;2023-02-15T09:34:30;1.80;99.90
17807;DHT22;9027;48.938;9.182;2023-02-15T09:36:02;1.90;99.90
17807;DHT22;9027;48.938;9.182;2023-02-15T09:37:34;2.00;99.90
17807;DHT22;9027;48.938;9.182;2023-02-15T09:39:08;2.00;99.90
17807;DHT22;9027;48.938;9.182;2023-02-15T09:40:49;1.60;99.90
17807;DHT22;9027;48.938;9.182;2023-02-15T09:42:38;1.40;99.90
17807;DHT22;9027;48.938;9.182;2023-02-15T09:44:19;1.30;99.90
17807;DHT22;9027;48.938;9.182;2023-02-15T09:46:12;1.40;99.90
17807;DHT22;9027;48.938;9.182;2023-02-15T09:48:03;1.50;99.90
17807;DHT22;9027;48.938;9.182;2023-02-15T09:49:42;1.80;99.90
17807;DHT22;9027;48.938;9.182;2023-02-15T09:51:44;1.60;99.90
17807;DHT22;9027;48.938;9.182;2023-02-15T09:53:37;1.80;99.90
17807;DHT22;9027;48.938;9.182;2023-02-15T09:55:24;1.90;99.90
17807;DHT22;9027;48.938;9.182;2023-02-15T09:57:02;2.10;99.90
17807;DHT22;9027;48.938;9.182;2023-02-15T09:58:46;2.20;99.90
17807;DHT22;9027;48.938;9.182;2023-02-15T10:00:26;2.30;99.90
17807;DHT22;9027;48.938;9.182;2023-02-15T10:02:09;2.40;99.90
17807;DHT22;9027;48.938;9.182;2023-02-15T10:03:57;2.50;99.90
17807;DHT22;9027;48.938;9.182;2023-02-15T10:05:38;2.60;99.90
17807;DHT22;9027;48.938;9.182;2023-02-15T10:07:22;2.80;99.90
17807;DHT22;9027;48.938;9.182;2023-02-15T10:09:03;2.90;99.90
17807;DHT22;9027;48.938;9.182;2023-02-15T10:10:45;2.90;99.90
17807;DHT22;9027;48.938;9.182;2023-02-15T10:12:37;3.00;99.90
17807;DHT22;9027;48.938;9.182;2023-02-15T10:14:34;2.90;99.90
17807;DHT22;9027;48.938;9.182;2023-02-15T10:16:17;2.90;99.90
17807;DHT22;9027;48.938;9.182;2023-02-15T10:18:10;3.10;99.90
17807;DHT22;9027;48.938;9.182;2023-02-15T10:19:52;3.10;99.90
17807;DHT22;9027;48.938;9.182;2023-02-15T10:21:39;3.10;99.90
17807;DHT22;9027;48.938;9.182;2023-02-15T10:23:31;3.10;99.90
17807;DHT22;9027;48.938;9.182;2023-02-15T10:25:27;3.10;99.90
17807;DHT22;9027;48.938;9.182;2023-02-15T10:27:07;3.00;99.90